Cotter, AR (72626)

2:29 PM CDT on March 30, 2017 (GMT -0500)
MC 7061 | | Change Station

Elev 673 ft 36.26 °N, 92.61 °W | Updated 13 seconds ago

Overcast
Overcast
55.4 °F
Feels Like 55.4 °F
N
4.5
Wind Variable Wind from SW
Gusts 4.9 mph

Today
High -- | Low -- °F
--% Chance of Precip.
Yesterday
High -- | Low -- °F
Precip. -- in
Pressure 29.63 in
Visibility 10.0 miles
Clouds Mostly Cloudy 3400 ft
Mostly Cloudy 4300 ft
Overcast 6500 ft
Dew Point 44 °F
Humidity 64%
Rainfall 0.04 in
Snow Depth Not available.
6:58 AM 7:30 PM
Waxing Crescent, 10% visible
METAR KFLP 301915Z 24018G25KT 10SM BKN034 BKN043 OVC065 13/03 A2963 RMK AO1
Pressure 29.63 in
Visibility 10.0 miles
Clouds Mostly Cloudy 3400 ft
Mostly Cloudy 4300 ft
Overcast 6500 ft
Dew Point 44 °F
Humidity 64%
Rainfall 0.04 in
Snow Depth Not available.
6:58 AM 7:30 PM
Waxing Crescent, 10% visible
METAR KFLP 301915Z 24018G25KT 10SM BKN034 BKN043 OVC065 13/03 A2963 RMK AO1

Get Severe Weather Alerts

Thanks for signing up!

Be on the lookout for a verification email in your inbox.

You'll start receiving the daily forecast at 8 AM.

×

10-Day Weather Forecast

Almanac

Astronomy

Mar. 30, 2017 Rise Set
Actual Time
Civil Twilight
Nautical Twilight
Astronomical Twilight
Moon
Length of Visible Light
Length of Day
Tomorrow will be .
, % of the Moon is Illuminated

Today's Extremes

State Highs State Lows

Community

WunderPhotos

Upload Photos

1,962,540 photos uploaded!

WunderBlog® & News

Nearby

Air Quality

  Air Quality AQ Index Pollutant
Not available.

Snow Depth

Station Depth Elevation

Earthquake Activity

City Distance Mag. Time & Date
Minimum magnitude displayed is 2.5.

Earthquake Activity

City Distance Mag. Time & Date
Minimum magnitude displayed is 2.5.

Coastal Water Temperatures

Place Temperature

Stations

Nearby Weather Stations

Station Location Temp. Windchill Dew Point Humidity Wind Precip. Elev Updated Type
                   

Watches & Warnings

There are currently no watches in effect.